M I D A S
Marine Information and Data Acquisition System
Tripno 1631 of the Zeeleeuw from 2009-01-21 08:17:31 to 2009-01-22 11:52:43
Back to CruiseResearch ActivitiesStationsMapUnderway DataData graphs

EquipmentUnitsComment
TimeDGPSUTC
LatitudeDGPSDM.mWGS84
LongitudeDGPSDM.mWGS84
HeadingGyrodeg 
SOGDGPSknotsSpeed over ground
COGDGPSdegCourse over ground
DepthEcho soundermeters200 kHz
Missing or incorrect values are displayed as -999
Navigation data collected by the RV Zeeleeuw from 2009-01-21 08:19:09 to 2009-01-22 12:03:35
                                                                                    Next 1000 lines
Time Latitude Longitude Heading SOG COG Depth
2009-01-21 08:19:19 51°13.663 2°55.956 117 0.7 295 7.9
2009-01-21 08:19:24 51°13.664 2°55.955 116.6 0.9 301 7.7
2009-01-21 08:19:29 51°13.665 2°55.953 116.5 1.1 298 7.7
2009-01-21 08:19:34 51°13.666 2°55.95 116.5 1.3 302 7.7
2009-01-21 08:19:39 51°13.667 2°55.948 116.6 1.4 300 7.8
2009-01-21 08:19:44 51°13.668 2°55.945 116.7 1.6 303 8
2009-01-21 08:19:49 51°13.669 2°55.941 116.7 1.7 300 -999
2009-01-21 08:19:54 51°13.67 2°55.938 116.2 1.8 301 -999
2009-01-21 08:19:59 51°13.672 2°55.935 115.3 1.9 299 -999
2009-01-21 08:20:04 51°13.673 2°55.931 114.6 2 298 -999
2009-01-21 08:20:09 51°13.674 2°55.927 113.4 2.1 296 -999
2009-01-21 08:20:14 51°13.676 2°55.922 112.3 2.2 296 -999
2009-01-21 08:20:19 51°13.677 2°55.918 111.2 2.2 295 -999
2009-01-21 08:20:24 51°13.678 2°55.913 110.4 2.3 294 -999
2009-01-21 08:20:29 51°13.68 2°55.908 109.2 2.4 292 -999
2009-01-21 08:20:34 51°13.681 2°55.903 108.2 2.4 290 -999
2009-01-21 08:20:39 51°13.682 2°55.898 107.3 2.5 290 -999
2009-01-21 08:20:44 51°13.683 2°55.893 106.2 2.6 288 -999
2009-01-21 08:20:49 51°13.684 2°55.887 105.1 2.6 287 -999
2009-01-21 08:20:54 51°13.685 2°55.882 104.1 2.7 285 -999
2009-01-21 08:20:59 51°13.686 2°55.876 103.1 2.7 286 -999
2009-01-21 08:21:04 51°13.687 2°55.87 102.3 2.7 284 -999
2009-01-21 08:21:10 51°13.688 2°55.863 101.3 2.8 285 -999
2009-01-21 08:21:14 51°13.689 2°55.858 100.5 2.8 282 -999
2009-01-21 08:21:19 51°13.689 2°55.853 99.5 2.7 283 -999
2009-01-21 08:21:24 51°13.69 2°55.847 98.6 2.7 281 -999
2009-01-21 08:21:30 51°13.691 2°55.84 97.4 2.7 281 -999
2009-01-21 08:21:34 51°13.692 2°55.835 96.2 2.8 280 -999
2009-01-21 08:21:39 51°13.692 2°55.829 95.3 2.8 280 -999
2009-01-21 08:21:44 51°13.693 2°55.823 94.2 2.8 278 -999
2009-01-21 08:21:49 51°13.693 2°55.816 92.9 2.8 277 -999
2009-01-21 08:21:55 51°13.694 2°55.809 91.2 2.8 277 -999
2009-01-21 08:21:59 51°13.694 2°55.804 89.7 2.7 275 -999
2009-01-21 08:22:04 51°13.694 2°55.799 88.5 2.7 274 -999
2009-01-21 08:22:09 51°13.694 2°55.793 86.9 2.6 273 -999
2009-01-21 08:22:14 51°13.695 2°55.787 84.9 2.5 272 -999
2009-01-21 08:22:19 51°13.695 2°55.782 83.4 2.4 271 -999
2009-01-21 08:22:24 51°13.695 2°55.777 82.3 2.3 271 14.2
2009-01-21 08:22:29 51°13.695 2°55.772 81.2 2.1 271 -999
2009-01-21 08:22:34 51°13.695 2°55.768 79.7 1.7 271 -999
2009-01-21 08:22:39 51°13.695 2°55.765 78 1.1 278 14.7
2009-01-21 08:22:44 51°13.695 2°55.764 75.7 0.6 297 14.6
2009-01-21 08:22:49 51°13.696 2°55.763 71.3 0.5 350 15.4
2009-01-21 08:22:54 51°13.697 2°55.764 66.9 0.7 16 14.7
2009-01-21 08:22:59 51°13.698 2°55.764 60.6 0.9 24 14.7
2009-01-21 08:23:04 51°13.699 2°55.766 54.4 1.1 25 14.7
2009-01-21 08:23:09 51°13.701 2°55.767 48.3 1.3 25 14.7
2009-01-21 08:23:14 51°13.702 2°55.768 42.6 1.5 22 14.7
2009-01-21 08:23:19 51°13.704 2°55.769 36.8 1.6 20 14.7
2009-01-21 08:23:24 51°13.707 2°55.77 30.9 1.4 13 14.7
2009-01-21 08:23:29 51°13.708 2°55.77 25.7 1.2 10 14.7
2009-01-21 08:23:34 51°13.709 2°55.771 22 0.8 8 14.7
2009-01-21 08:23:39 51°13.71 2°55.771 18.8 0.5 358 14.7
2009-01-21 08:23:44 51°13.71 2°55.77 15 0.3 337 14.6
2009-01-21 08:23:49 51°13.71 2°55.77 11.5 0.2 253 14.6
2009-01-21 08:23:54 51°13.71 2°55.77 8.4 0.2 300 14.6
2009-01-21 08:23:59 51°13.71 2°55.769 6.1 0.3 321 14.7
2009-01-21 08:24:04 51°13.711 2°55.769 4.3 0.7 337 14.7
2009-01-21 08:24:09 51°13.713 2°55.769 2.5 1.4 351 14.7
2009-01-21 08:24:14 51°13.716 2°55.767 358.1 1.9 340 14.7
2009-01-21 08:24:19 51°13.719 2°55.765 351.5 2.4 339 14.7
2009-01-21 08:24:24 51°13.722 2°55.763 344 2.7 333 14.6
2009-01-21 08:24:29 51°13.725 2°55.759 336.2 3.1 327 14.4
2009-01-21 08:24:34 51°13.729 2°55.755 329.8 3.5 323 14.3
2009-01-21 08:24:39 51°13.733 2°55.749 325.4 3.9 321 14.4
2009-01-21 08:24:44 51°13.738 2°55.743 322.8 4.3 320 14.1
2009-01-21 08:24:49 51°13.742 2°55.736 321.1 4.8 318 13.7
2009-01-21 08:24:54 51°13.748 2°55.729 320.3 5.1 318 12.8
2009-01-21 08:24:59 51°13.753 2°55.721 319.7 5.4 318 12.3
2009-01-21 08:25:04 51°13.759 2°55.713 319.6 5.7 318 12.2
2009-01-21 08:25:09 51°13.765 2°55.704 319.6 6 318 12.2
2009-01-21 08:25:14 51°13.771 2°55.695 319.6 6.1 318 12.2
2009-01-21 08:25:19 51°13.777 2°55.686 320.2 6.2 320 12.2
2009-01-21 08:25:24 51°13.784 2°55.677 321 6.3 321 12.2
2009-01-21 08:25:29 51°13.791 2°55.669 322.4 6.3 324 12.2
2009-01-21 08:25:34 51°13.799 2°55.661 324.6 6.4 326 12.2
2009-01-21 08:25:39 51°13.806 2°55.653 327 6.4 329 12.1
2009-01-21 08:25:44 51°13.814 2°55.646 329.7 6.4 330 12.1
2009-01-21 08:25:49 51°13.822 2°55.64 332.1 6.4 333 12.1
2009-01-21 08:25:54 51°13.83 2°55.634 334.6 6.5 334 12.1
2009-01-21 08:25:59 51°13.838 2°55.628 336.1 6.5 335 12.1
2009-01-21 08:26:04 51°13.846 2°55.622 337 6.5 335 12.1
2009-01-21 08:26:09 51°13.854 2°55.616 337.5 6.6 336 12.1
2009-01-21 08:26:14 51°13.863 2°55.609 337.8 6.7 335 12
2009-01-21 08:26:19 51°13.871 2°55.603 337.8 6.8 335 12
2009-01-21 08:26:24 51°13.88 2°55.596 337.1 6.9 335 12
2009-01-21 08:26:29 51°13.888 2°55.59 336.5 7 335 12
2009-01-21 08:26:34 51°13.897 2°55.583 336.4 7 336 12
2009-01-21 08:26:39 51°13.906 2°55.577 337 7.1 336 12.1
2009-01-21 08:26:44 51°13.915 2°55.571 338 7.1 338 12.1
2009-01-21 08:26:49 51°13.924 2°55.565 339.3 7.1 339 12.1
2009-01-21 08:26:54 51°13.934 2°55.559 339.8 7.1 338 12.1
2009-01-21 08:26:59 51°13.943 2°55.553 339.9 7.2 338 12.1
2009-01-21 08:27:04 51°13.952 2°55.547 339.9 7.2 338 12.1
2009-01-21 08:27:09 51°13.961 2°55.541 339.6 7.2 337 12.1
2009-01-21 08:27:14 51°13.97 2°55.534 339.3 7.2 337 12.1
2009-01-21 08:27:19 51°13.979 2°55.528 339.1 7.3 336 12.1
2009-01-21 08:27:24 51°13.989 2°55.521 338.7 7.3 337 12.1
2009-01-21 08:27:29 51°13.998 2°55.515 338.5 7.3 337 12.1
2009-01-21 08:27:34 51°14.007 2°55.509 338.5 7.3 337 12.1
2009-01-21 08:27:39 51°14.016 2°55.502 338.5 7.3 337 12.1
2009-01-21 08:27:44 51°14.026 2°55.496 338.6 7.3 337 12.2
2009-01-21 08:27:49 51°14.035 2°55.49 338.7 7.3 337 12.2
2009-01-21 08:27:54 51°14.045 2°55.484 338.9 7.3 337 12.2
2009-01-21 08:27:59 51°14.054 2°55.478 338.9 7.3 336 12.2
2009-01-21 08:28:04 51°14.064 2°55.471 338.5 7.4 336 12.3
2009-01-21 08:28:09 51°14.073 2°55.464 337.8 7.4 335 12.3
2009-01-21 08:28:14 51°14.082 2°55.456 336.7 7.4 333 12.3
2009-01-21 08:28:19 51°14.091 2°55.449 335.6 7.5 333 12.3
2009-01-21 08:28:24 51°14.1 2°55.441 334.9 7.6 333 12.3
2009-01-21 08:28:29 51°14.11 2°55.433 334.8 7.7 332 12.3
2009-01-21 08:28:34 51°14.119 2°55.425 334.6 7.8 332 12.2
2009-01-21 08:28:39 51°14.129 2°55.416 334.1 7.8 330 12.2
2009-01-21 08:28:44 51°14.138 2°55.408 332.9 7.8 330 12.2
2009-01-21 08:28:49 51°14.147 2°55.399 331.7 7.9 328 12.2
2009-01-21 08:28:54 51°14.157 2°55.389 330.4 8 327 12.2
2009-01-21 08:28:59 51°14.166 2°55.379 329.1 8.1 327 12.2
2009-01-21 08:29:04 51°14.175 2°55.369 328.5 8.1 326 12.2
2009-01-21 08:29:09 51°14.185 2°55.359 328.3 8.3 326 12.2
2009-01-21 08:29:14 51°14.194 2°55.349 328.1 8.4 326 12.2
2009-01-21 08:29:19 51°14.204 2°55.338 327.9 8.4 325 12.2
2009-01-21 08:29:24 51°14.214 2°55.327 327.7 8.5 325 12.3
2009-01-21 08:29:29 51°14.223 2°55.316 327 8.6 323 12.3
2009-01-21 08:29:34 51°14.233 2°55.304 326.1 8.7 322 12.3
2009-01-21 08:29:39 51°14.242 2°55.292 324.7 8.7 320 12.3
2009-01-21 08:29:44 51°14.251 2°55.279 322.9 8.8 318 12.8
2009-01-21 08:29:49 51°14.26 2°55.266 320.9 8.8 316 12.3
2009-01-21 08:29:54 51°14.268 2°55.252 318.7 8.9 314 12.8
2009-01-21 08:29:59 51°14.277 2°55.237 316.7 9 313 12.4
2009-01-21 08:30:04 51°14.285 2°55.222 314.8 9 311 12.4
2009-01-21 08:30:09 51°14.293 2°55.207 313.1 9.1 309 12.4
2009-01-21 08:30:14 51°14.301 2°55.191 311.3 9.1 307 12.3
2009-01-21 08:30:19 51°14.308 2°55.175 309.5 9.1 306 12.4
2009-01-21 08:30:24 51°14.315 2°55.158 307.3 9.2 304 12.4
2009-01-21 08:30:29 51°14.322 2°55.141 305.7 9.2 304 12.4
2009-01-21 08:30:34 51°14.329 2°55.124 305.1 9.3 303 12.4
2009-01-21 08:30:39 51°14.336 2°55.106 304.6 9.3 303 12.5
2009-01-21 08:30:44 51°14.343 2°55.089 304.1 9.3 303 12.5
2009-01-21 08:30:49 51°14.35 2°55.071 304 9.3 303 13.2
2009-01-21 08:30:54 51°14.357 2°55.054 304 9.4 303 12.6
2009-01-21 08:30:59 51°14.364 2°55.037 304.1 9.3 304 12.6
2009-01-21 08:31:04 51°14.372 2°55.02 304.2 9.4 306 12.6
2009-01-21 08:31:09 51°14.38 2°55.004 305.1 9.4 309 12.7
2009-01-21 08:31:14 51°14.388 2°54.988 306.8 9.5 311 12.7
2009-01-21 08:31:19 51°14.397 2°54.972 308.7 9.5 312 12.7
2009-01-21 08:31:24 51°14.406 2°54.957 309.1 9.6 313 12.7
2009-01-21 08:31:29 51°14.416 2°54.942 309.5 9.7 314 12.8
2009-01-21 08:31:34 51°14.425 2°54.926 309.9 9.7 314 12.9
2009-01-21 08:31:39 51°14.434 2°54.911 310 9.8 314 12.9
2009-01-21 08:31:44 51°14.444 2°54.895 309.5 9.8 313 12.9
2009-01-21 08:31:49 51°14.453 2°54.879 308.7 9.8 313 13
2009-01-21 08:31:54 51°14.462 2°54.863 308 9.9 311 13
2009-01-21 08:31:59 51°14.471 2°54.846 307.1 9.9 310 12.9
2009-01-21 08:32:04 51°14.479 2°54.829 305.9 9.9 309 12.9
2009-01-21 08:32:09 51°14.488 2°54.811 304.8 10 308 12.9
2009-01-21 08:32:14 51°14.496 2°54.794 304.4 10 308 12.9
2009-01-21 08:32:19 51°14.505 2°54.776 304.1 10 307 12.9
2009-01-21 08:32:24 51°14.513 2°54.758 304 10.1 306 12.9
2009-01-21 08:32:29 51°14.52 2°54.739 302.3 10 301 12.8
2009-01-21 08:32:34 51°14.526 2°54.719 299 10 297 12.7
2009-01-21 08:32:39 51°14.532 2°54.699 295.3 10 294 12.7
2009-01-21 08:32:44 51°14.538 2°54.679 292.8 10 292 12.7
2009-01-21 08:32:49 51°14.542 2°54.657 289.6 10.3 288 12.6
2009-01-21 08:32:54 51°14.546 2°54.635 287.4 10.5 285 12.6
2009-01-21 08:32:59 51°14.549 2°54.612 284.4 10.6 283 12.6
2009-01-21 08:33:04 51°14.552 2°54.589 281.7 10.7 280 12.7
2009-01-21 08:33:09 51°14.554 2°54.566 278.9 10.8 277 12.8
2009-01-21 08:33:14 51°14.555 2°54.542 275.5 10.8 274 12.8
2009-01-21 08:33:19 51°14.556 2°54.518 272.7 10.9 271 13
2009-01-21 08:33:24 51°14.555 2°54.494 270.5 10.9 268 13
2009-01-21 08:33:29 51°14.554 2°54.47 267.4 10.9 265 13.2
2009-01-21 08:33:34 51°14.552 2°54.446 264.4 11 262 13.2
2009-01-21 08:33:39 51°14.55 2°54.422 261.6 11.1 261 12.9
2009-01-21 08:33:44 51°14.547 2°54.398 260.6 11.1 261 12.8
2009-01-21 08:33:49 51°14.545 2°54.373 259.8 11.1 262 13.2
2009-01-21 08:33:54 51°14.543 2°54.349 259.9 11.1 262 13
2009-01-21 08:33:59 51°14.54 2°54.324 260.6 11.1 262 13.1
2009-01-21 08:34:04 51°14.538 2°54.3 260.7 11.1 261 13.1
2009-01-21 08:34:09 51°14.535 2°54.276 259.7 11.1 259 12.9
2009-01-21 08:34:14 51°14.532 2°54.252 258.7 11.1 258 12.9
2009-01-21 08:34:19 51°14.529 2°54.228 257.2 11.1 257 13
2009-01-21 08:34:24 51°14.525 2°54.205 255.9 11.1 255 13
2009-01-21 08:34:29 51°14.52 2°54.181 254.7 11.1 254 13
2009-01-21 08:34:34 51°14.516 2°54.158 253.2 11.1 254 13.1
2009-01-21 08:34:39 51°14.512 2°54.134 253 11.1 256 13.2
2009-01-21 08:34:44 51°14.508 2°54.11 253.7 11.2 257 12.8
2009-01-21 08:34:49 51°14.505 2°54.086 254.8 11.1 259 12.4
2009-01-21 08:34:54 51°14.503 2°54.062 256.5 11.1 260 12.1
2009-01-21 08:34:59 51°14.5 2°54.038 257.6 11 258 12.1
2009-01-21 08:35:04 51°14.496 2°54.014 257.7 11 257 12.1
2009-01-21 08:35:09 51°14.492 2°53.991 256.1 10.8 251 12
2009-01-21 08:35:14 51°14.486 2°53.97 252.5 10.6 246 12
2009-01-21 08:35:19 51°14.479 2°53.949 247.8 10.6 240 12
2009-01-21 08:35:24 51°14.471 2°53.93 242.2 10.5 237 12.1
2009-01-21 08:35:29 51°14.461 2°53.912 237.6 10.5 230 12
2009-01-21 08:35:34 51°14.452 2°53.895 232.1 10.6 229 12
2009-01-21 08:35:39 51°14.441 2°53.878 230.5 10.5 224 12
2009-01-21 08:35:44 51°14.43 2°53.863 227.4 10.6 221 12
2009-01-21 08:35:49 51°14.418 2°53.848 223.3 10.7 218 12.1
2009-01-21 08:35:55 51°14.404 2°53.831 220.9 10.7 216 12.1
2009-01-21 08:35:59 51°14.394 2°53.82 218.8 10.8 217 12
2009-01-21 08:36:04 51°14.383 2°53.805 218 10.8 219 12
2009-01-21 08:36:09 51°14.371 2°53.789 219.5 10.8 220 12
2009-01-21 08:36:14 51°14.36 2°53.773 220.9 10.8 222 11.9
2009-01-21 08:36:19 51°14.349 2°53.757 222.9 10.8 222 12
2009-01-21 08:36:24 51°14.338 2°53.741 223.6 10.9 224 11.9
2009-01-21 08:36:29 51°14.327 2°53.724 224.1 10.8 223 11.9
2009-01-21 08:36:34 51°14.316 2°53.708 224.5 10.8 224 11.9
2009-01-21 08:36:39 51°14.305 2°53.692 224.3 10.8 223 11.9
2009-01-21 08:36:44 51°14.294 2°53.676 224.3 10.8 223 11.9
2009-01-21 08:36:49 51°14.283 2°53.66 224.2 10.8 223 11.9
2009-01-21 08:36:54 51°14.272 2°53.643 224 10.8 223 11.8
2009-01-21 08:36:59 51°14.261 2°53.627 223.8 10.8 222 11.9
2009-01-21 08:37:04 51°14.25 2°53.611 223.8 10.8 222 11.9
2009-01-21 08:37:09 51°14.239 2°53.595 223.7 10.8 222 11.8
2009-01-21 08:37:14 51°14.228 2°53.579 223.5 10.8 222 11.8
2009-01-21 08:37:19 51°14.217 2°53.564 223.5 10.7 222 11.9
2009-01-21 08:37:24 51°14.206 2°53.548 223.2 10.7 221 11.9
2009-01-21 08:37:29 51°14.195 2°53.532 223.1 10.8 221 11.9
2009-01-21 08:37:34 51°14.183 2°53.516 222.7 10.8 222 11.8
2009-01-21 08:37:39 51°14.172 2°53.5 222.5 10.7 223 11.8
2009-01-21 08:37:44 51°14.162 2°53.483 223.6 10.7 226 11.8
2009-01-21 08:37:49 51°14.152 2°53.465 225.9 10.7 230 11.8
2009-01-21 08:37:54 51°14.144 2°53.446 228.9 10.7 234 11.9
2009-01-21 08:37:59 51°14.136 2°53.427 232.4 10.6 238 11.9
2009-01-21 08:38:04 51°14.128 2°53.406 235.9 10.7 242 11.9
2009-01-21 08:38:09 51°14.122 2°53.385 239.7 10.7 245 11.9
2009-01-21 08:38:14 51°14.116 2°53.363 243.5 10.7 246 12
2009-01-21 08:38:19 51°14.11 2°53.342 245.3 10.7 244 12
2009-01-21 08:38:24 51°14.103 2°53.321 244.9 10.7 243 12
2009-01-21 08:38:29 51°14.095 2°53.301 242.7 10.7 238 12
2009-01-21 08:38:34 51°14.087 2°53.281 239.6 10.7 237 12.1
2009-01-21 08:38:39 51°14.079 2°53.261 237.5 10.8 235 12.1
2009-01-21 08:38:44 51°14.07 2°53.242 236 10.8 234 12.2
2009-01-21 08:38:49 51°14.061 2°53.222 234.7 10.8 235 12.2
2009-01-21 08:38:54 51°14.053 2°53.202 234.7 10.9 236 12.2
2009-01-21 08:38:59 51°14.045 2°53.182 235.9 10.9 239 12.2
2009-01-21 08:39:04 51°14.037 2°53.161 237.5 10.9 240 12.2
2009-01-21 08:39:09 51°14.03 2°53.14 239.3 10.9 242 12.2
2009-01-21 08:39:14 51°14.024 2°53.118 241.1 11 245 12.2
2009-01-21 08:39:19 51°14.018 2°53.096 242.9 11 247 12.2
2009-01-21 08:39:24 51°14.012 2°53.074 245.2 11 248 12.2
2009-01-21 08:39:29 51°14.007 2°53.051 247 11 249 12.2
2009-01-21 08:39:34 51°14.001 2°53.028 247.8 11 249 12.3
2009-01-21 08:39:39 51°13.996 2°53.006 248.2 11 249 12.3
2009-01-21 08:39:44 51°13.991 2°52.983 248 11 250 12.3
2009-01-21 08:39:49 51°13.986 2°52.96 248.9 11 252 12.4
2009-01-21 08:39:54 51°13.981 2°52.937 249.9 11 253 12.4
2009-01-21 08:39:59 51°13.977 2°52.913 251 11 254 12.4
2009-01-21 08:40:04 51°13.973 2°52.89 252.1 11 254 12.5
2009-01-21 08:40:09 51°13.969 2°52.867 252.8 11 253 12.5
2009-01-21 08:40:15 51°13.963 2°52.839 252.9 11 252 12.5
2009-01-21 08:40:19 51°13.959 2°52.821 251.9 10.9 251 12.6
2009-01-21 08:40:24 51°13.954 2°52.798 250.3 10.9 249 12.6
2009-01-21 08:40:29 51°13.948 2°52.776 248.2 10.8 247 12.6
2009-01-21 08:40:34 51°13.941 2°52.755 246.4 10.8 243 12.6
2009-01-21 08:40:39 51°13.934 2°52.734 244.1 10.8 242 12.6
2009-01-21 08:40:44 51°13.926 2°52.713 241.9 10.7 239 12.6
2009-01-21 08:40:49 51°13.918 2°52.693 239.3 10.9 239 12.6
2009-01-21 08:40:54 51°13.911 2°52.672 238 10.8 238 12.6
2009-01-21 08:40:59 51°13.903 2°52.653 237.9 10.1 239 12.7
2009-01-21 08:41:04 51°13.897 2°52.635 238 9.1 241 12.6
2009-01-21 08:41:09 51°13.891 2°52.619 239.8 8.1 243 12.6
2009-01-21 08:41:14 51°13.887 2°52.604 241.9 7.2 246 12.7
2009-01-21 08:41:19 51°13.883 2°52.59 244.2 6.6 247 12.8
2009-01-21 08:41:24 51°13.88 2°52.578 245.9 6.2 247 12.9
2009-01-21 08:41:29 51°13.877 2°52.566 246.9 5.7 246 12.8
2009-01-21 08:41:34 51°13.874 2°52.556 245.4 5 240 12.9
2009-01-21 08:41:39 51°13.87 2°52.547 241.1 4.6 238 12.9
2009-01-21 08:41:44 51°13.867 2°52.54 237.2 4.1 235 12.8
2009-01-21 08:41:49 51°13.864 2°52.533 234.9 3.7 234 12.9
2009-01-21 08:41:54 51°13.861 2°52.527 233 3.4 232 12.9
2009-01-21 08:41:59 51°13.858 2°52.522 231.5 3.1 230 12.9
2009-01-21 08:42:04 51°13.856 2°52.517 230.3 2.9 229 12.9
2009-01-21 08:42:09 51°13.853 2°52.512 229.4 2.7 228 13
2009-01-21 08:42:14 51°13.851 2°52.508 228.2 2.4 225 12.8
2009-01-21 08:42:19 51°13.849 2°52.505 227.2 2.3 224 13
2009-01-21 08:42:24 51°13.847 2°52.502 226.2 2.1 223 12.9
2009-01-21 08:42:29 51°13.844 2°52.499 225.3 2.1 221 12.8
2009-01-21 08:42:35 51°13.842 2°52.495 224.2 2.1 214 12.9
2009-01-21 08:42:39 51°13.839 2°52.494 221.5 2.1 209 12.9
2009-01-21 08:42:44 51°13.837 2°52.492 217.6 2 205 12.9
2009-01-21 08:42:49 51°13.835 2°52.491 213.1 1.8 196 12.9
2009-01-21 08:42:54 51°13.832 2°52.49 209.3 1.7 193 12.9
2009-01-21 08:42:59 51°13.83 2°52.489 206.8 1.5 187 12.9
2009-01-21 08:43:04 51°13.828 2°52.489 204.9 1.5 184 12.9
2009-01-21 08:43:09 51°13.826 2°52.489 203.2 1.4 182 12.9
2009-01-21 08:43:14 51°13.824 2°52.489 201.7 1.3 177 12.8
2009-01-21 08:43:19 51°13.823 2°52.489 200.6 1.3 170 12.8
2009-01-21 08:43:24 51°13.821 2°52.49 199.2 1.1 165 12.9
2009-01-21 08:43:29 51°13.82 2°52.491 197.8 1.1 162 12.9
2009-01-21 08:43:34 51°13.818 2°52.492 196.8 1.1 160 12.8
2009-01-21 08:43:39 51°13.817 2°52.493 195.8 1 155 12.9
2009-01-21 08:43:44 51°13.815 2°52.494 194.7 1 153 12.9
2009-01-21 08:43:49 51°13.814 2°52.495 193.7 1.1 146 12.9
2009-01-21 08:43:54 51°13.813 2°52.496 192.3 1 143 12.9
2009-01-21 08:43:59 51°13.812 2°52.498 191.1 1 141 12.8
2009-01-21 08:44:04 51°13.811 2°52.499 189.5 1 139 12.8
2009-01-21 08:44:09 51°13.81 2°52.501 188.1 1 133 12.8
2009-01-21 08:44:14 51°13.809 2°52.503 186.5 1 131 12.8
2009-01-21 08:44:19 51°13.808 2°52.505 185.2 1 129 12.8
2009-01-21 08:44:24 51°13.807 2°52.506 184 1 128 12.8
2009-01-21 08:44:29 51°13.806 2°52.508 183.2 1.1 126 12.7
2009-01-21 08:44:35 51°13.806 2°52.511 182.4 1.1 121 12.8
2009-01-21 08:44:39 51°13.805 2°52.512 181.6 1.1 120 12.7
2009-01-21 08:44:44 51°13.804 2°52.515 180.7 1.1 117 12.7
2009-01-21 08:44:49 51°13.804 2°52.517 180.1 1.1 116 12.7
2009-01-21 08:44:54 51°13.803 2°52.519 179.1 1.2 116 12.7
2009-01-21 08:44:59 51°13.802 2°52.522 178.1 1.2 116 12.7
2009-01-21 08:45:04 51°13.801 2°52.524 177.4 1.2 115 12.7
2009-01-21 08:45:09 51°13.801 2°52.527 176.7 1.2 119 12.7
2009-01-21 08:45:14 51°13.8 2°52.529 176.2 1.3 119 12.6
2009-01-21 08:45:19 51°13.799 2°52.532 175.7 1.3 120 12.6
2009-01-21 08:45:24 51°13.798 2°52.534 175.2 1.4 122 12.7
2009-01-21 08:45:29 51°13.797 2°52.537 175.1 1.4 125 12.6
2009-01-21 08:45:34 51°13.796 2°52.54 175.1 1.5 129 12.7
2009-01-21 08:45:39 51°13.794 2°52.542 175.7 1.7 136 12.7
2009-01-21 08:45:44 51°13.792 2°52.545 176.3 1.8 142 12.6
2009-01-21 08:45:49 51°13.79 2°52.547 177.8 1.9 150 12.6
2009-01-21 08:45:54 51°13.787 2°52.549 180.2 2 156 12.5
2009-01-21 08:45:59 51°13.784 2°52.55 183.5 2.1 164 12.5
2009-01-21 08:46:04 51°13.781 2°52.551 187.1 2.2 169 12.6
2009-01-21 08:46:09 51°13.778 2°52.552 191.3 2.1 177 12.5
2009-01-21 08:46:14 51°13.776 2°52.552 195.7 2 178 12.5
2009-01-21 08:46:19 51°13.773 2°52.551 199.5 1.9 184 12.5
2009-01-21 08:46:24 51°13.77 2°52.551 202.5 1.8 186 12.6
2009-01-21 08:46:29 51°13.768 2°52.551 205 1.7 188 12.6
2009-01-21 08:46:34 51°13.766 2°52.55 207.1 1.7 192 12.6
2009-01-21 08:46:39 51°13.763 2°52.549 208.8 1.7 193 12.6
2009-01-21 08:46:44 51°13.761 2°52.548 210 1.8 198 12.5
2009-01-21 08:46:49 51°13.758 2°52.547 210.9 1.9 198 12.5
2009-01-21 08:46:54 51°13.756 2°52.545 212.2 2 202 12.6
2009-01-21 08:46:59 51°13.753 2°52.543 212.8 2.2 203 12.6
2009-01-21 08:47:04 51°13.75 2°52.541 213.2 2.3 205 12.5
2009-01-21 08:47:09 51°13.747 2°52.539 213.7 2.5 205 12.6
2009-01-21 08:47:14 51°13.744 2°52.536 213.9 2.6 207 12.5
2009-01-21 08:47:19 51°13.74 2°52.533 214.2 2.7 207 12.5
2009-01-21 08:47:24 51°13.737 2°52.531 214.4 2.8 209 12.5
2009-01-21 08:47:29 51°13.733 2°52.527 214.4 3 209 12.6
2009-01-21 08:47:34 51°13.73 2°52.524 214.4 3.1 211 12.5
2009-01-21 08:47:39 51°13.726 2°52.52 215.5 3.1 213 12.6
2009-01-21 08:47:44 51°13.723 2°52.516 217.3 3.2 218 12.5
2009-01-21 08:47:49 51°13.719 2°52.512 219.6 3.2 219 12.5
2009-01-21 08:47:54 51°13.716 2°52.507 222.3 3.3 225 12.5
2009-01-21 08:47:59 51°13.713 2°52.502 225.2 3.1 228 12.5
2009-01-21 08:48:04 51°13.711 2°52.496 228.2 2.9 232 12.5
2009-01-21 08:48:09 51°13.709 2°52.491 231.1 2.8 235 12.8
2009-01-21 08:48:14 51°13.707 2°52.486 234 2.6 240 12.8
2009-01-21 08:48:19 51°13.705 2°52.481 236.7 2.4 244 12.8
2009-01-21 08:48:24 51°13.704 2°52.477 239.1 2.3 247 12.7
2009-01-21 08:48:29 51°13.703 2°52.472 241.1 2.2 250 12.6
2009-01-21 08:48:34 51°13.702 2°52.468 243.2 2.1 253 12.5
2009-01-21 08:48:39 51°13.701 2°52.463 245 2 257 12.5
2009-01-21 08:48:44 51°13.701 2°52.459 246.8 1.9 258 12.6
2009-01-21 08:48:49 51°13.701 2°52.455 248.3 1.8 263 12.5
2009-01-21 08:48:54 51°13.7 2°52.451 249.8 1.8 266 12.6
2009-01-21 08:48:59 51°13.7 2°52.448 251.1 1.8 268 12.6
2009-01-21 08:49:04 51°13.7 2°52.444 252.1 1.7 267 12.5
2009-01-21 08:49:09 51°13.7 2°52.44 252.8 1.6 271 12.5
2009-01-21 08:49:14 51°13.7 2°52.437 253.6 1.7 275 12.6
2009-01-21 08:49:19 51°13.701 2°52.433 254.1 1.6 272 12.6
2009-01-21 08:49:24 51°13.701 2°52.43 254.3 1.6 276 12.6
2009-01-21 08:49:29 51°13.701 2°52.427 254.5 1.5 276 12.6
2009-01-21 08:49:35 51°13.701 2°52.423 254.6 1.3 279 12.6
2009-01-21 08:49:39 51°13.702 2°52.421 254.6 1.3 283 12.6
2009-01-21 08:49:44 51°13.702 2°52.418 254.7 1.3 285 12.6
2009-01-21 08:49:49 51°13.703 2°52.416 255 1.2 284 12.6
2009-01-21 08:49:54 51°13.703 2°52.413 255 1.3 286 12.6
2009-01-21 08:49:59 51°13.703 2°52.41 254.9 1.2 279 12.6
2009-01-21 08:50:04 51°13.704 2°52.407 254.4 1.3 281 12.7
2009-01-21 08:50:09 51°13.704 2°52.405 253.8 1.4 275 12.6
2009-01-21 08:50:14 51°13.704 2°52.401 253.2 1.6 273 12.6
2009-01-21 08:50:19 51°13.704 2°52.398 252.1 1.8 266 12.6
2009-01-21 08:50:24 51°13.704 2°52.393 250.4 2 263 12.6
2009-01-21 08:50:29 51°13.703 2°52.389 248.6 2.1 256 12.6
2009-01-21 08:50:34 51°13.702 2°52.384 246.6 2.3 254 12.7
2009-01-21 08:50:39 51°13.701 2°52.379 244.4 2.4 248 12.7
2009-01-21 08:50:44 51°13.7 2°52.374 242 2.5 247 12.7
2009-01-21 08:50:49 51°13.698 2°52.369 239.8 2.6 242 12.7
2009-01-21 08:50:54 51°13.696 2°52.364 238.1 2.6 241 12.6
2009-01-21 08:50:59 51°13.695 2°52.359 236.2 2.6 238 12.7
2009-01-21 08:51:04 51°13.692 2°52.354 234.8 2.6 237 12.6
2009-01-21 08:51:09 51°13.69 2°52.349 233.5 2.7 236 12.7
2009-01-21 08:51:14 51°13.688 2°52.344 232.5 2.7 234 12.6
2009-01-21 08:51:19 51°13.686 2°52.34 232 2.7 234 12.7
2009-01-21 08:51:24 51°13.684 2°52.335 231.7 2.7 233 12.7
2009-01-21 08:51:29 51°13.682 2°52.33 231.2 2.7 233 12.7
2009-01-21 08:51:34 51°13.679 2°52.326 231 2.7 233 12.6
2009-01-21 08:51:39 51°13.677 2°52.321 230.7 2.6 232 12.7
2009-01-21 08:51:44 51°13.675 2°52.316 230.7 2.6 233 12.7
2009-01-21 08:51:49 51°13.672 2°52.312 230.6 2.6 232 12.7
2009-01-21 08:51:54 51°13.67 2°52.307 230.6 2.6 232 12.7
2009-01-21 08:51:59 51°13.668 2°52.303 230.5 2.5 233 12.6
2009-01-21 08:52:04 51°13.666 2°52.298 230.8 2.5 233 12.7
2009-01-21 08:52:09 51°13.664 2°52.294 231.4 2.6 236 12.6
2009-01-21 08:52:14 51°13.662 2°52.289 232 2.5 234 12.6
2009-01-21 08:52:19 51°13.66 2°52.284 233 2.5 239 12.7
2009-01-21 08:52:24 51°13.658 2°52.28 234 2.5 235 12.7
2009-01-21 08:52:29 51°13.656 2°52.275 234.5 2.5 242 12.7
2009-01-21 08:52:34 51°13.655 2°52.271 235.4 2.4 239 12.7
2009-01-21 08:52:39 51°13.653 2°52.266 236.1 2.3 244 12.7
2009-01-21 08:52:44 51°13.652 2°52.262 236.9 2.3 242 12.7
2009-01-21 08:52:49 51°13.65 2°52.257 237.1 2.2 244 12.7
2009-01-21 08:52:54 51°13.649 2°52.253 237.6 2.2 246 12.7
2009-01-21 08:52:59 51°13.648 2°52.249 238.1 2.1 244 12.7
2009-01-21 08:53:04 51°13.647 2°52.245 238.7 2.1 247 12.7
2009-01-21 08:53:09 51°13.646 2°52.24 239.1 2.1 246 12.7
2009-01-21 08:53:14 51°13.645 2°52.236 239.6 2 249 12.7
2009-01-21 08:53:19 51°13.644 2°52.232 240 2 248 12.7
2009-01-21 08:53:24 51°13.643 2°52.228 240.3 2 250 12.7
2009-01-21 08:53:29 51°13.642 2°52.224 240.8 1.9 250 12.7
2009-01-21 08:53:34 51°13.641 2°52.22 241.2 1.9 252 12.7
2009-01-21 08:53:39 51°13.64 2°52.216 241.4 1.9 250 12.7
2009-01-21 08:53:44 51°13.639 2°52.212 241.6 1.9 252 12.7
2009-01-21 08:53:49 51°13.638 2°52.208 241.8 1.9 252 12.7
2009-01-21 08:53:55 51°13.638 2°52.203 241.8 1.8 251 12.7
2009-01-21 08:53:59 51°13.637 2°52.2 241.7 1.9 252 12.7
2009-01-21 08:54:04 51°13.636 2°52.197 241.6 1.9 251 12.7
2009-01-21 08:54:09 51°13.635 2°52.192 241.4 1.9 250 12.7
2009-01-21 08:54:14 51°13.634 2°52.188 241.3 2 251 12.7
2009-01-21 08:54:19 51°13.633 2°52.184 241.2 2 250 12.7
2009-01-21 08:54:24 51°13.632 2°52.18 241.2 2 251 12.7
2009-01-21 08:54:29 51°13.631 2°52.176 241.1 2.1 250 12.7
2009-01-21 08:54:34 51°13.63 2°52.172 241.1 2.1 249 12.7
2009-01-21 08:54:39 51°13.629 2°52.167 241.1 2.1 250 12.7
2009-01-21 08:54:44 51°13.628 2°52.163 241.1 2.1 249 12.7
2009-01-21 08:54:49 51°13.627 2°52.158 241.1 2.2 249 12.7
2009-01-21 08:54:54 51°13.626 2°52.154 240.9 2.2 249 12.7
2009-01-21 08:54:59 51°13.625 2°52.149 240.9 2.2 250 12.7
2009-01-21 08:55:04 51°13.623 2°52.145 240.8 2.2 247 12.7
2009-01-21 08:55:09 51°13.622 2°52.14 240.8 2.2 249 12.7
2009-01-21 08:55:14 51°13.621 2°52.135 240.7 2.3 247 12.7
2009-01-21 08:55:19 51°13.62 2°52.131 240.6 2.3 248 12.7
2009-01-21 08:55:24 51°13.619 2°52.126 240.7 2.3 248 12.7
2009-01-21 08:55:29 51°13.618 2°52.121 240.8 2.3 247 12.7
2009-01-21 08:55:34 51°13.617 2°52.117 241.1 2.4 249 12.7
2009-01-21 08:55:39 51°13.615 2°52.112 241.2 2.3 249 12.7
2009-01-21 08:55:44 51°13.614 2°52.107 241.2 2.3 248 12.7
2009-01-21 08:55:49 51°13.613 2°52.102 241.2 2.4 248 12.7
2009-01-21 08:55:54 51°13.612 2°52.097 241.5 2.4 249 12.8
2009-01-21 08:55:59 51°13.611 2°52.092 241.6 2.4 249 12.7
2009-01-21 08:56:04 51°13.609 2°52.088 241.7 2.4 249 12.7
2009-01-21 08:56:09 51°13.608 2°52.083 241.8 2.3 249 12.8
2009-01-21 08:56:15 51°13.607 2°52.077 242 2.3 250 12.8
2009-01-21 08:56:19 51°13.606 2°52.073 242.2 2.3 251 12.8
2009-01-21 08:56:24 51°13.605 2°52.069 242.6 2.3 250 12.8
2009-01-21 08:56:29 51°13.604 2°52.064 242.9 2.2 251 12.7
2009-01-21 08:56:34 51°13.603 2°52.059 243.3 2.2 254 12.8
2009-01-21 08:56:39 51°13.602 2°52.055 243.6 2.2 252 12.8
2009-01-21 08:56:44 51°13.602 2°52.05 244.1 2.2 255 12.8
2009-01-21 08:56:49 51°13.601 2°52.045 244.3 2.2 252 12.9
2009-01-21 08:56:54 51°13.6 2°52.041 244.5 2.2 256 12.8
2009-01-21 08:56:59 51°13.599 2°52.036 244.8 2.1 252 12.8
2009-01-21 08:57:04 51°13.598 2°52.032 244.8 2.2 257 12.8
2009-01-21 08:57:09 51°13.597 2°52.027 244.8 2.1 253 12.8
2009-01-21 08:57:14 51°13.597 2°52.023 244.7 2.1 255 12.8
2009-01-21 08:57:19 51°13.596 2°52.019 244.7 2.1 252 12.9
2009-01-21 08:57:24 51°13.595 2°52.014 244.7 2.1 254 12.8
2009-01-21 08:57:29 51°13.594 2°52.01 244.5 2 253 12.9
2009-01-21 08:57:34 51°13.593 2°52.005 244.4 2.1 254 12.9
2009-01-21 08:57:39 51°13.593 2°52.001 244.2 2.1 255 12.9
2009-01-21 08:57:44 51°13.592 2°51.997 244.2 2 255 12.9
2009-01-21 08:57:49 51°13.591 2°51.992 244.3 2 255 12.9
2009-01-21 08:57:54 51°13.59 2°51.988 244.4 2 255 12.9
2009-01-21 08:57:59 51°13.59 2°51.984 244.7 2 257 12.9
2009-01-21 08:58:04 51°13.589 2°51.979 244.9 2 256 12.9
2009-01-21 08:58:09 51°13.589 2°51.975 245.2 2 256 13
2009-01-21 08:58:14 51°13.588 2°51.971 245.6 2 257 12.9
2009-01-21 08:58:19 51°13.587 2°51.966 245.9 2 258 12.9
2009-01-21 08:58:24 51°13.587 2°51.962 246 2 256 12.9
2009-01-21 08:58:29 51°13.586 2°51.957 246.2 2 258 12.9
2009-01-21 08:58:34 51°13.586 2°51.953 246.3 2 259 12.9
2009-01-21 08:58:39 51°13.585 2°51.949 246.4 2 258 12.9
2009-01-21 08:58:44 51°13.584 2°51.944 246.6 2 258 12.9
2009-01-21 08:58:49 51°13.584 2°51.94 247 2 259 12.9
2009-01-21 08:58:54 51°13.583 2°51.936 247.1 2 259 12.8
2009-01-21 08:58:59 51°13.583 2°51.931 247.3 2 258 12.9
2009-01-21 08:59:04 51°13.582 2°51.927 247.6 2 260 12.8
2009-01-21 08:59:09 51°13.582 2°51.922 247.8 2.1 260 12.8
2009-01-21 08:59:14 51°13.582 2°51.918 248.2 2 262 12.9
2009-01-21 08:59:19 51°13.581 2°51.913 248.4 2 261 12.9
2009-01-21 08:59:24 51°13.581 2°51.909 248.7 2 261 12.9
2009-01-21 08:59:29 51°13.581 2°51.905 248.8 2 262 13
2009-01-21 08:59:34 51°13.58 2°51.9 249 2 262 12.9
2009-01-21 08:59:39 51°13.58 2°51.896 249.2 2.1 263 12.9
2009-01-21 08:59:44 51°13.579 2°51.891 249.2 2 260 12.9
2009-01-21 08:59:49 51°13.579 2°51.887 249.3 2 263 13
2009-01-21 08:59:54 51°13.579 2°51.882 249.5 2 262 13
2009-01-21 08:59:59 51°13.578 2°51.878 249.5 2 263 13
2009-01-21 09:00:04 51°13.578 2°51.873 249.6 2 262 12.9
2009-01-21 09:00:09 51°13.578 2°51.869 249.6 2 264 13
2009-01-21 09:00:14 51°13.577 2°51.864 249.8 2 265 13
2009-01-21 09:00:19 51°13.577 2°51.86 249.9 2 264 12.9
2009-01-21 09:00:24 51°13.577 2°51.856 250 2 264 13
2009-01-21 09:00:29 51°13.577 2°51.851 250.1 2 264 12.9
2009-01-21 09:00:35 51°13.576 2°51.846 250.3 2 264 12.8
2009-01-21 09:00:39 51°13.576 2°51.842 250.5 2 265 13
2009-01-21 09:00:44 51°13.576 2°51.838 250.5 2 265 13.1
2009-01-21 09:00:49 51°13.576 2°51.833 250.5 2 265 13
2009-01-21 09:00:54 51°13.575 2°51.829 250.5 2 265 13
2009-01-21 09:00:59 51°13.575 2°51.825 250.4 2 266 13
2009-01-21 09:01:04 51°13.575 2°51.82 250.4 2 265 13
2009-01-21 09:01:09 51°13.575 2°51.816 250.4 2 264 13.1
2009-01-21 09:01:14 51°13.574 2°51.812 250.4 2 264 13.1
2009-01-21 09:01:19 51°13.574 2°51.807 250.3 2 263 13.1
2009-01-21 09:01:24 51°13.574 2°51.803 250 1.9 263 13
2009-01-21 09:01:29 51°13.574 2°51.799 249.5 1.9 262 13.1
2009-01-21 09:01:34 51°13.573 2°51.795 248.6 1.9 263 13
2009-01-21 09:01:39 51°13.573 2°51.791 247.7 1.8 259 13.1
2009-01-21 09:01:44 51°13.572 2°51.787 247 1.9 261 13.1
2009-01-21 09:01:49 51°13.572 2°51.783 246.1 1.9 258 13.1
2009-01-21 09:01:54 51°13.571 2°51.779 245.4 1.8 257 13.1
2009-01-21 09:01:59 51°13.571 2°51.775 244.6 1.8 256 13.1
2009-01-21 09:02:04 51°13.57 2°51.771 244 1.8 255 13.1
2009-01-21 09:02:09 51°13.569 2°51.767 243.3 1.8 254 13.1
2009-01-21 09:02:14 51°13.569 2°51.764 242.3 1.7 251 13.1
2009-01-21 09:02:19 51°13.568 2°51.76 241.2 1.7 250 13.1
2009-01-21 09:02:24 51°13.567 2°51.756 239.8 1.7 247 13.1
2009-01-21 09:02:29 51°13.566 2°51.753 238.3 1.7 247 13.1
2009-01-21 09:02:35 51°13.565 2°51.749 237.1 1.7 244 13.1
2009-01-21 09:02:39 51°13.563 2°51.747 235.9 1.7 241 13.1
2009-01-21 09:02:44 51°13.562 2°51.743 234.7 1.7 240 13.1
2009-01-21 09:02:49 51°13.561 2°51.74 233.6 1.6 237 13.1
2009-01-21 09:02:54 51°13.56 2°51.737 232.5 1.7 238 13.1
2009-01-21 09:02:59 51°13.558 2°51.734 231.7 1.7 235 13.1
2009-01-21 09:03:04 51°13.557 2°51.731 230.8 1.7 235 13
2009-01-21 09:03:09 51°13.556 2°51.729 230.2 1.6 232 13.1
2009-01-21 09:03:14 51°13.554 2°51.726 229.7 1.7 233 13.1
2009-01-21 09:03:19 51°13.553 2°51.723 229.5 1.8 232 13.1
2009-01-21 09:03:24 51°13.551 2°51.719 229.3 1.9 234 13.1
2009-01-21 09:03:29 51°13.549 2°51.716 229.4 2 232 13.1
2009-01-21 09:03:34 51°13.548 2°51.712 229.6 2.1 234 13.1
2009-01-21 09:03:39 51°13.546 2°51.709 230.1 2.1 232 13.1
2009-01-21 09:03:44 51°13.544 2°51.705 230.7 2.2 234 13.1
2009-01-21 09:03:49 51°13.542 2°51.701 231.2 2.3 234 13.1
2009-01-21 09:03:54 51°13.54 2°51.696 231.4 2.4 234 13.1
2009-01-21 09:03:59 51°13.538 2°51.692 231.5 2.4 233 13.1
2009-01-21 09:04:04 51°13.536 2°51.688 231.6 2.5 233 13.1
2009-01-21 09:04:09 51°13.534 2°51.684 231.4 2.5 233 13.1
2009-01-21 09:04:14 51°13.532 2°51.679 231.2 2.5 233 13.1
2009-01-21 09:04:19 51°13.53 2°51.675 231.1 2.6 232 13.1
2009-01-21 09:04:24 51°13.528 2°51.67 230.9 2.6 231 13.1
2009-01-21 09:04:29 51°13.525 2°51.666 230.5 2.6 231 13.1
2009-01-21 09:04:34 51°13.523 2°51.661 229.9 2.7 230 13.1
2009-01-21 09:04:39 51°13.521 2°51.657 229.3 2.7 230 13
2009-01-21 09:04:44 51°13.518 2°51.652 228.9 2.7 229 13
2009-01-21 09:04:49 51°13.516 2°51.648 228.4 2.7 229 13
2009-01-21 09:04:54 51°13.514 2°51.643 228.2 2.7 228 13.1
2009-01-21 09:04:59 51°13.511 2°51.639 228 2.8 228 13.1
2009-01-21 09:05:04 51°13.509 2°51.634 227.6 2.8 228 13.1
2009-01-21 09:05:09 51°13.506 2°51.63 227.4 2.7 226 13.1
2009-01-21 09:05:14 51°13.503 2°51.625 227.2 2.7 227 13
2009-01-21 09:05:19 51°13.501 2°51.621 226.9 2.7 225 13.1
2009-01-21 09:05:24 51°13.498 2°51.617 226.5 2.6 226 13
2009-01-21 09:05:29 51°13.495 2°51.613 225.9 2.6 224 13.1
2009-01-21 09:05:34 51°13.493 2°51.609 225.3 2.5 223 13.1
2009-01-21 09:05:39 51°13.491 2°51.606 224.9 2.4 224 13.1
2009-01-21 09:05:44 51°13.488 2°51.602 224.5 2.3 222 13.1
2009-01-21 09:05:49 51°13.486 2°51.599 224.1 2.2 222 13.1
2009-01-21 09:05:54 51°13.484 2°51.596 223.8 2.2 223 13.1
2009-01-21 09:05:59 51°13.482 2°51.593 223.4 2.1 222 13.1
2009-01-21 09:06:04 51°13.479 2°51.59 223.3 2 221 13.1
2009-01-21 09:06:09 51°13.477 2°51.587 223.1 2 222 13.1
2009-01-21 09:06:14 51°13.475 2°51.584 223.1 1.9 223 13.1
2009-01-21 09:06:19 51°13.473 2°51.581 223.1 1.9 222 13.1
2009-01-21 09:06:24 51°13.472 2°51.578 223.1 1.8 221 13.1
2009-01-21 09:06:29 51°13.47 2°51.576 223.2 1.8 221 13.1
2009-01-21 09:06:34 51°13.468 2°51.573 223.1 1.8 219 13.1
2009-01-21 09:06:39 51°13.466 2°51.571 223.1 1.7 218 13.1
2009-01-21 09:06:44 51°13.464 2°51.569 222.9 1.7 219 13.1
2009-01-21 09:06:49 51°13.463 2°51.566 222.5 1.6 220 13.1
2009-01-21 09:06:54 51°13.461 2°51.564 222.2 1.6 218 13.1
2009-01-21 09:06:59 51°13.459 2°51.562 221.9 1.6 218 13.1
2009-01-21 09:07:04 51°13.457 2°51.56 221.4 1.5 219 13
2009-01-21 09:07:09 51°13.456 2°51.558 221 1.5 216 13
2009-01-21 09:07:14 51°13.454 2°51.556 220.6 1.5 216 13.1
2009-01-21 09:07:19 51°13.452 2°51.554 220.2 1.5 216 13.1
2009-01-21 09:07:24 51°13.45 2°51.552 219.8 1.6 215 13
2009-01-21 09:07:29 51°13.448 2°51.55 219.4 1.6 212 13
2009-01-21 09:07:34 51°13.446 2°51.548 218.6 1.6 212 13
2009-01-21 09:07:39 51°13.444 2°51.546 217.5 1.7 209 13
2009-01-21 09:07:44 51°13.442 2°51.545 216.9 1.8 207 13.1
2009-01-21 09:07:49 51°13.44 2°51.543 215.7 1.8 207 13
2009-01-21 09:07:54 51°13.437 2°51.541 215.1 1.9 206 13.1
2009-01-21 09:07:59 51°13.435 2°51.54 214.3 1.9 205 13
2009-01-21 09:08:04 51°13.433 2°51.538 213.5 1.9 203 13
2009-01-21 09:08:09 51°13.43 2°51.536 212.9 1.9 205 13.1
2009-01-21 09:08:14 51°13.428 2°51.534 212.3 2 201 13.1
2009-01-21 09:08:19 51°13.425 2°51.533 212.2 2 204 13
2009-01-21 09:08:24 51°13.422 2°51.531 211.5 2 200 13.1
2009-01-21 09:08:29 51°13.42 2°51.529 211.4 2 204 13
2009-01-21 09:08:34 51°13.417 2°51.528 211.3 2.1 199 12.9
2009-01-21 09:08:39 51°13.414 2°51.526 211.3 2.1 204 13.1
2009-01-21 09:08:44 51°13.412 2°51.524 211.3 2.2 199 13
2009-01-21 09:08:49 51°13.409 2°51.523 211.1 2.1 203 13
2009-01-21 09:08:54 51°13.406 2°51.521 210.8 2.2 199 13
2009-01-21 09:08:59 51°13.403 2°51.519 210.6 2.2 201 12.9
2009-01-21 09:09:04 51°13.4 2°51.518 210.3 2.2 199 12.9
2009-01-21 09:09:09 51°13.398 2°51.516 210.1 2.2 202 12.9
2009-01-21 09:09:14 51°13.395 2°51.515 210 2.2 200 12.9
2009-01-21 09:09:19 51°13.392 2°51.513 210 2.2 202 12.9
2009-01-21 09:09:24 51°13.389 2°51.511 210.1 2.3 201 12.9
2009-01-21 09:09:29 51°13.386 2°51.509 210.2 2.2 202 12.9
2009-01-21 09:09:34 51°13.383 2°51.507 210.5 2.3 199 12.8
2009-01-21 09:09:39 51°13.38 2°51.506 210.5 2.3 202 12.8
2009-01-21 09:09:44 51°13.377 2°51.504 210.1 2.2 198 12.8
2009-01-21 09:09:49 51°13.375 2°51.502 209.5 2.2 200 12.8
2009-01-21 09:09:54 51°13.372 2°51.501 208.9 2.3 198 12.8
2009-01-21 09:09:59 51°13.369 2°51.499 208.5 2.3 200 12.8
2009-01-21 09:10:04 51°13.366 2°51.497 207.7 2.3 196 12.8
2009-01-21 09:10:09 51°13.363 2°51.496 207.1 2.3 197 12.8
2009-01-21 09:10:14 51°13.36 2°51.495 206.8 2.3 195 12.7
2009-01-21 09:10:19 51°13.356 2°51.493 206.3 2.3 197 12.8
2009-01-21 09:10:24 51°13.353 2°51.492 205.9 2.3 195 12.7
2009-01-21 09:10:29 51°13.35 2°51.491 205.5 2.3 196 12.7
2009-01-21 09:10:34 51°13.347 2°51.489 205.2 2.3 194 12.7
2009-01-21 09:10:39 51°13.344 2°51.488 205.1 2.3 196 12.8
2009-01-21 09:10:44 51°13.341 2°51.487 205 2.3 194 12.7
2009-01-21 09:10:49 51°13.338 2°51.486 204.9 2.3 195 12.7
2009-01-21 09:10:54 51°13.335 2°51.484 204.9 2.3 194 12.6
2009-01-21 09:10:59 51°13.332 2°51.483 204.9 2.3 194 12.6
2009-01-21 09:11:04 51°13.328 2°51.482 204.9 2.3 193 12.6
2009-01-21 09:11:09 51°13.325 2°51.481 204.9 2.3 193 12.7
2009-01-21 09:11:14 51°13.322 2°51.48 204.9 2.2 195 12.6
2009-01-21 09:11:19 51°13.319 2°51.478 204.8 2.2 194 12.6
2009-01-21 09:11:24 51°13.316 2°51.477 204.9 2.2 195 12.6
2009-01-21 09:11:29 51°13.313 2°51.476 204.9 2.2 194 12.6
2009-01-21 09:11:34 51°13.31 2°51.474 205.2 2.2 197 12.7
2009-01-21 09:11:39 51°13.307 2°51.473 205.3 2.2 196 12.6
2009-01-21 09:11:44 51°13.305 2°51.472 205.8 2.2 198 12.6
2009-01-21 09:11:49 51°13.302 2°51.47 206.4 2.2 198 12.6
2009-01-21 09:11:54 51°13.299 2°51.469 207.4 2.1 199 12.6
2009-01-21 09:11:59 51°13.296 2°51.467 208 2.1 200 12.6
2009-01-21 09:12:04 51°13.293 2°51.465 208.8 2.1 201 12.6
2009-01-21 09:12:09 51°13.291 2°51.464 209.4 2.1 201 12.5
2009-01-21 09:12:14 51°13.288 2°51.462 210 2.1 202 12.5
2009-01-21 09:12:19 51°13.285 2°51.46 210.6 2.1 204 12.5
2009-01-21 09:12:24 51°13.283 2°51.459 211.1 2.1 202 12.5
2009-01-21 09:12:29 51°13.28 2°51.456 211.7 2.1 206 12.5
2009-01-21 09:12:34 51°13.277 2°51.455 212.2 2.1 205 12.4
2009-01-21 09:12:39 51°13.275 2°51.452 212.9 2.1 207 12.5
2009-01-21 09:12:44 51°13.272 2°51.45 213.7 2.1 207 12.4
2009-01-21 09:12:49 51°13.27 2°51.448 214.2 2 210 12.5
2009-01-21 09:12:54 51°13.267 2°51.446 215.2 2.1 208 12.4
2009-01-21 09:12:59 51°13.265 2°51.444 215.7 2 212 12.4
2009-01-21 09:13:04 51°13.262 2°51.441 216.7 2 210 12.4
2009-01-21 09:13:09 51°13.26 2°51.439 217.3 2 212 12.5
2009-01-21 09:13:14 51°13.258 2°51.437 217.9 2 213 12.4
2009-01-21 09:13:19 51°13.255 2°51.434 218.3 2 213 12.4
2009-01-21 09:13:24 51°13.253 2°51.432 218.7 2 214 12.4
2009-01-21 09:13:29 51°13.251 2°51.429 219.3 2.1 217 12.4
2009-01-21 09:13:34 51°13.248 2°51.426 219.7 2 215 12.4
2009-01-21 09:13:39 51°13.246 2°51.424 220.2 2 218 12.4
2009-01-21 09:13:44 51°13.244 2°51.421 220.7 2.1 216 12.4
2009-01-21 09:13:49 51°13.242 2°51.418 220.9 2.1 219 12.5
2009-01-21 09:13:54 51°13.239 2°51.416 221.1 2.1 217 12.4
2009-01-21 09:13:59 51°13.237 2°51.413 221.1 2 219 12.5
2009-01-21 09:14:04 51°13.235 2°51.41 221.1 2 219 12.5
2009-01-21 09:14:09 51°13.233 2°51.407 221.3 2.1 221 12.3
2009-01-21 09:14:15 51°13.23 2°51.403 221.6 2.1 220 12.3
2009-01-21 09:14:19 51°13.229 2°51.401 222.1 2.1 222 12.3
2009-01-21 09:14:24 51°13.226 2°51.398 222.6 2.1 222 12.3
2009-01-21 09:14:29 51°13.224 2°51.395 223.2 2.1 222 12.3
2009-01-21 09:14:34 51°13.222 2°51.392 223.9 2.1 223 12.3
2009-01-21 09:14:39 51°13.22 2°51.389 224.4 2.1 224 12.3
2009-01-21 09:14:44 51°13.218 2°51.385 224.6 2.1 226 12.3
2009-01-21 09:14:49 51°13.216 2°51.382 225.3 2.1 225 12.3
2009-01-21 09:14:54 51°13.214 2°51.379 225.5 2.1 226 12.3
2009-01-21 09:14:59 51°13.212 2°51.375 225.8 2.1 226 12.3
2009-01-21 09:15:04 51°13.21 2°51.372 226 2.1 227 12.3
2009-01-21 09:15:09 51°13.208 2°51.369 226 2.1 227 12.3
2009-01-21 09:15:14 51°13.206 2°51.365 226.2 2.1 228 12.3
2009-01-21 09:15:19 51°13.204 2°51.362 226.3 2.1 228 12.3
2009-01-21 09:15:24 51°13.202 2°51.358 226.7 2.1 229 12.3
2009-01-21 09:15:29 51°13.2 2°51.354 227.2 2.1 229 12.3
2009-01-21 09:15:34 51°13.198 2°51.351 227.7 2.1 230 12.3
2009-01-21 09:15:39 51°13.197 2°51.347 228.2 2.1 231 12.3
2009-01-21 09:15:44 51°13.195 2°51.344 228.7 2.1 232 12.3
2009-01-21 09:15:49 51°13.193 2°51.34 229.1 2.1 232 12.3
2009-01-21 09:15:54 51°13.191 2°51.336 229.5 2.1 232 12.3
2009-01-21 09:15:59 51°13.189 2°51.333 229.8 2.2 232 12.3
2009-01-21 09:16:04 51°13.188 2°51.329 230.2 2.1 233 12.3
2009-01-21 09:16:09 51°13.186 2°51.325 230.3 2.1 233 12.3
2009-01-21 09:16:14 51°13.184 2°51.321 230.4 2.1 234 12.3
2009-01-21 09:16:19 51°13.182 2°51.317 230.6 2.1 233 12.4
2009-01-21 09:16:24 51°13.181 2°51.314 230.8 2.2 234 12.3
2009-01-21 09:16:29 51°13.179 2°51.31 230.8 2.2 234 12.3
2009-01-21 09:16:35 51°13.177 2°51.305 230.8 2.2 236 12.3
2009-01-21 09:16:39 51°13.175 2°51.302 230.8 2.2 234 12.3
2009-01-21 09:16:44 51°13.174 2°51.298 231 2.2 236 12.2
2009-01-21 09:16:49 51°13.172 2°51.294 231.1 2.2 235 12.3
2009-01-21 09:16:54 51°13.17 2°51.29 231.2 2.1 235 12.3
2009-01-21 09:16:59 51°13.169 2°51.286 231.3 2.2 236 12.3
2009-01-21 09:17:04 51°13.167 2°51.282 231.3 2.2 234 12.3
2009-01-21 09:17:09 51°13.165 2°51.278 231.3 2.2 236 12.3
2009-01-21 09:17:14 51°13.164 2°51.274 231.2 2.2 235 12.3
2009-01-21 09:17:19 51°13.162 2°51.27 231.1 2.2 235 12.2
2009-01-21 09:17:24 51°13.16 2°51.267 231.1 2.1 234 12.2
2009-01-21 09:17:29 51°13.158 2°51.263 231 2.2 235 12.3
2009-01-21 09:17:34 51°13.157 2°51.259 230.8 2.2 234 12.2
2009-01-21 09:17:39 51°13.155 2°51.255 230.7 2.2 234 12.2
2009-01-21 09:17:44 51°13.153 2°51.251 230.5 2.2 233 12.3
2009-01-21 09:17:49 51°13.151 2°51.247 230.4 2.2 233 12.2
2009-01-21 09:17:54 51°13.149 2°51.243 230.3 2.2 234 12.3
2009-01-21 09:17:59 51°13.148 2°51.24 230.3 2.2 233 12.2
2009-01-21 09:18:04 51°13.146 2°51.236 230.2 2.2 234 12.2
2009-01-21 09:18:09 51°13.144 2°51.232 230.2 2.2 231 12.3
2009-01-21 09:18:14 51°13.142 2°51.228 230 2.2 234 12.3
2009-01-21 09:18:19 51°13.14 2°51.224 229.7 2.2 231 12.3
2009-01-21 09:18:24 51°13.139 2°51.22 229.6 2.2 234 12.2
2009-01-21 09:18:29 51°13.137 2°51.217 229.5 2.2 232 12.3
2009-01-21 09:18:35 51°13.134 2°51.212 229.3 2.2 233 12.3
2009-01-21 09:18:39 51°13.133 2°51.209 229.2 2.2 231 12.3
2009-01-21 09:18:44 51°13.131 2°51.205 229.3 2.2 233 12.3
2009-01-21 09:18:49 51°13.129 2°51.201 229.4 2.2 231 12.3
2009-01-21 09:18:54 51°13.127 2°51.198 229.8 2.2 235 12.3
2009-01-21 09:18:59 51°13.125 2°51.194 230 2.2 231 12.2
2009-01-21 09:19:04 51°13.124 2°51.19 230.2 2.2 234 12.3
2009-01-21 09:19:09 51°13.122 2°51.186 230.6 2.2 234 12.3
2009-01-21 09:19:14 51°13.12 2°51.182 231 2.2 237 12.2
2009-01-21 09:19:19 51°13.118 2°51.178 231.2 2.2 233 12.2
2009-01-21 09:19:24 51°13.117 2°51.174 231.7 2.2 239 12.2
2009-01-21 09:19:29 51°13.115 2°51.17 232.1 2.2 235 12.2
2009-01-21 09:19:34 51°13.113 2°51.166 232.3 2.2 237 12.2
2009-01-21 09:19:39 51°13.112 2°51.162 232.5 2.2 238 12.2
2009-01-21 09:19:44 51°13.11 2°51.157 232.8 2.2 238 12.2
2009-01-21 09:19:49 51°13.108 2°51.153 233.1 2.2 237 12.2
2009-01-21 09:19:54 51°13.107 2°51.149 233.2 2.2 238 12.2
2009-01-21 09:19:59 51°13.105 2°51.145 233.3 2.2 238 12.2
2009-01-21 09:20:04 51°13.104 2°51.141 233.3 2.2 240 12.3
2009-01-21 09:20:09 51°13.102 2°51.137 233.3 2.2 237 12.2
2009-01-21 09:20:14 51°13.1 2°51.132 233.3 2.2 240 12.2
2009-01-21 09:20:19 51°13.099 2°51.129 233.4 2.1 237 12.3
2009-01-21 09:20:24 51°13.097 2°51.125 233.4 2.1 241 12.3
2009-01-21 09:20:29 51°13.096 2°51.121 233.4 2.1 237 12.3
2009-01-21 09:20:35 51°13.094 2°51.116 233.5 2.1 240 12.3
2009-01-21 09:20:39 51°13.093 2°51.113 233.9 2.2 240 12.3
2009-01-21 09:20:44 51°13.091 2°51.108 234.2 2.2 241 12.2
2009-01-21 09:20:49 51°13.09 2°51.104 234.8 2.2 241 12.2
2009-01-21 09:20:54 51°13.089 2°51.1 235.5 2.2 242 12.2
2009-01-21 09:20:59 51°13.087 2°51.096 236.1 2.2 242 12.2
2009-01-21 09:21:04 51°13.086 2°51.091 236.8 2.2 246 12.3
2009-01-21 09:21:09 51°13.084 2°51.087 237.5 2.2 245 12.2
2009-01-21 09:21:14 51°13.083 2°51.082 238.1 2.2 250 12.3
2009-01-21 09:21:19 51°13.082 2°51.078 240.5 2.2 253 12.3
2009-01-21 09:21:24 51°13.082 2°51.073 243.5 2.2 258 12.3
2009-01-21 09:21:29 51°13.081 2°51.068 247 2.2 262 12.3
2009-01-21 09:21:34 51°13.081 2°51.063 250.9 2.2 268 12.3
2009-01-21 09:21:39 51°13.081 2°51.058 255 2.2 274 12.3
2009-01-21 09:21:44 51°13.082 2°51.053 259.3 2.3 278 12.4
2009-01-21 09:21:49 51°13.082 2°51.049 263.6 2.3 285 12.4
2009-01-21 09:21:54 51°13.083 2°51.044 268 2.3 289 12.4
2009-01-21 09:21:59 51°13.085 2°51.039 272.2 2.4 294 12.4
2009-01-21 09:22:04 51°13.086 2°51.034 276.4 2.4 299 12.4
2009-01-21 09:22:09 51°13.088 2°51.03 280.5 2.5 304 12.4
2009-01-21 09:22:14 51°13.09 2°51.026 284.7 2.5 309 12.4
2009-01-21 09:22:19 51°13.093 2°51.021 289.1 2.6 314 12.4
2009-01-21 09:22:24 51°13.095 2°51.017 293.3 2.6 316 12.5
2009-01-21 09:22:29 51°13.098 2°51.014 297.4 2.7 323 12.5
2009-01-21 09:22:34 51°13.101 2°51.01 301.5 2.7 326 12.5
2009-01-21 09:22:39 51°13.105 2°51.007 305.6 2.7 331 12.5
2009-01-21 09:22:44 51°13.108 2°51.005 309.3 2.6 333 12.5
2009-01-21 09:22:49 51°13.111 2°51.002 312 2.5 337 12.6
2009-01-21 09:22:54 51°13.114 2°51 314 2.4 338 12.6
2009-01-21 09:22:59 51°13.117 2°50.998 315.5 2.4 341 12.6
2009-01-21 09:23:04 51°13.12 2°50.997 316.4 2.3 342 12.7
2009-01-21 09:23:09 51°13.124 2°50.995 317.3 2.3 343 12.7
2009-01-21 09:23:14 51°13.127 2°50.994 318 2.3 345 12.6
2009-01-21 09:23:19 51°13.13 2°50.993 318.2 2.3 346 12.6
2009-01-21 09:23:24 51°13.133 2°50.992 318.3 2.2 347 12.7
2009-01-21 09:23:29 51°13.136 2°50.991 318.6 2.2 349 12.7
2009-01-21 09:23:34 51°13.139 2°50.99 318.6 2.2 350 12.7
2009-01-21 09:23:39 51°13.142 2°50.99 318.5 2.1 350 12.6
2009-01-21 09:23:44 51°13.145 2°50.989 318.3 2.1 352 12.7
2009-01-21 09:23:49 51°13.148 2°50.988 318 2 351 12.7
2009-01-21 09:23:54 51°13.151 2°50.988 317.6 2.1 353 12.8
2009-01-21 09:23:59 51°13.153 2°50.987 317 2 353 12.7
2009-01-21 09:24:04 51°13.156 2°50.986 316.6 2 353 12.8
2009-01-21 09:24:09 51°13.159 2°50.986 316.2 1.9 354 12.8
2009-01-21 09:24:14 51°13.161 2°50.986 315.3 1.9 354 12.8
2009-01-21 09:24:19 51°13.164 2°50.985 314.7 1.9 354 12.8
2009-01-21 09:24:24 51°13.167 2°50.985 314.2 1.8 355 12.9
2009-01-21 09:24:29 51°13.169 2°50.985 313.4 1.8 356 12.9
2009-01-21 09:24:34 51°13.171 2°50.984 312.7 1.7 356 12.9
2009-01-21 09:24:39 51°13.174 2°50.984 312 1.7 356 12.9
2009-01-21 09:24:44 51°13.176 2°50.984 311.3 1.7 355 12.9
2009-01-21 09:24:49 51°13.179 2°50.983 310.8 1.7 358 12.9
2009-01-21 09:24:54 51°13.181 2°50.983 310.2 1.6 356 12.9
2009-01-21 09:24:59 51°13.183 2°50.983 309.5 1.6 359 12.9
2009-01-21 09:25:04 51°13.185 2°50.983 308.7 1.5 359 13
2009-01-21 09:25:09 51°13.187 2°50.983 308.1 1.5 359 12.9
2009-01-21 09:25:14 51°13.189 2°50.983 307.3 1.5 359 13
2009-01-21 09:25:19 51°13.191 2°50.983 306.6 1.5 359 13
2009-01-21 09:25:24 51°13.193 2°50.983 305.6 1.5 2 13
2009-01-21 09:25:29 51°13.195 2°50.983 305.1 1.4 1 13
2009-01-21 09:25:35 51°13.197 2°50.983 304.2 1.4 -999 13
2009-01-21 09:25:39 51°13.199 2°50.983 303.2 1.4 1 13
2009-01-21 09:25:44 51°13.201 2°50.983 302.6 1.3 -999 13
2009-01-21 09:25:49 51°13.203 2°50.983 301.6 1.4 358 13.1
2009-01-21 09:25:54 51°13.205 2°50.983 301.1 1.4 355 13.1
2009-01-21 09:25:59 51°13.206 2°50.982 300.8 1.5 352 13.1
2009-01-21 09:26:04 51°13.209 2°50.981 300.5 1.6 349 13.1
2009-01-21 09:26:09 51°13.211 2°50.981 300.8 1.6 348 13.1
2009-01-21 09:26:14 51°13.213 2°50.98 301.5 1.7 345 13.1
2009-01-21 09:26:19 51°13.215 2°50.979 303.1 1.8 346 13.1
2009-01-21 09:26:24 51°13.218 2°50.978 305.6 1.9 345 13.1
2009-01-21 09:26:29 51°13.221 2°50.976 308.1 2.2 343 13.2
2009-01-21 09:26:34 51°13.224 2°50.975 311.1 2.4 344 13.1
2009-01-21 09:26:39 51°13.227 2°50.974 314.3 2.7 346 13.2
2009-01-21 09:26:44 51°13.231 2°50.972 320.1 2.9 349 13.1
2009-01-21 09:26:49 51°13.236 2°50.971 325.5 3.1 353 13.1
2009-01-21 09:26:54 51°13.24 2°50.971 330.2 3.3 356 13.1
2009-01-21 09:26:59 51°13.245 2°50.971 335.9 3.5 1 13.1
2009-01-21 09:27:04 51°13.25 2°50.972 342 3.6 5 13.2
2009-01-21 09:27:09 51°13.255 2°50.973 347.9 3.8 9 13.2
2009-01-21 09:27:14 51°13.26 2°50.975 354 3.9 15 13.1
2009-01-21 09:27:19 51°13.266 2°50.978 0.3 4 19 13.2
2009-01-21 09:27:24 51°13.271 2°50.981 6.4 4.1 22 13.2
2009-01-21 09:27:29 51°13.276 2°50.985 12.4 4 28 13.2
2009-01-21 09:27:34 51°13.281 2°50.99 19.6 4 32 13.2
2009-01-21 09:27:39 51°13.286 2°50.994 23.5 4 34 13.3
2009-01-21 09:27:44 51°13.29 2°51 28.6 4 38 13.2
2009-01-21 09:27:49 51°13.294 2°51.005 33.1 3.8 42 13.2
2009-01-21 09:27:55 51°13.299 2°51.012 37.9 3.7 44 13.3
2009-01-21 09:27:59 51°13.302 2°51.017 41.7 3.6 45 13.3
2009-01-21 09:28:04 51°13.305 2°51.023 44.7 3.6 48 13.2
2009-01-21 09:28:09 51°13.308 2°51.029 47.6 3.5 50 13.2
2009-01-21 09:28:15 51°13.312 2°51.036 50.4 3.5 51 13.2
2009-01-21 09:28:19 51°13.314 2°51.041 53.3 3.3 53 13.2
2009-01-21 09:28:24 51°13.317 2°51.046 56.3 3.2 54 13.2
2009-01-21 09:28:29 51°13.319 2°51.052 59 3.1 56 13.2
2009-01-21 09:28:34 51°13.322 2°51.058 60.9 3.1 56 13.2
2009-01-21 09:28:39 51°13.324 2°51.063 62.7 3 57 13.2
2009-01-21 09:28:44 51°13.326 2°51.069 64.1 2.9 57 13.2
2009-01-21 09:28:49 51°13.328 2°51.074 65 2.9 58 13.2
2009-01-21 09:28:54 51°13.33 2°51.079 65.8 2.8 58 13.2
2009-01-21 09:28:59 51°13.332 2°51.084 66.7 2.8 59 13.2
2009-01-21 09:29:04 51°13.334 2°51.09 67.6 2.7 59 13.2
2009-01-21 09:29:09 51°13.336 2°51.095 68.5 2.6 61 13.2
2009-01-21 09:29:14 51°13.338 2°51.1 69.1 2.6 60 13.2
2009-01-21 09:29:19 51°13.34 2°51.105 69.8 2.6 60 13.2
2009-01-21 09:29:24 51°13.341 2°51.11 70.7 2.5 61 13.2
2009-01-21 09:29:29 51°13.343 2°51.114 71.2 2.5 62 13.2
2009-01-21 09:29:34 51°13.345 2°51.119 71.9 2.5 59 13.2
2009-01-21 09:29:39 51°13.346 2°51.124 72.5 2.4 61 13.2
2009-01-21 09:29:44 51°13.348 2°51.128 73 2.4 60 13.2
2009-01-21 09:29:49 51°13.35 2°51.133 73.6 2.4 61 13.2
2009-01-21 09:29:55 51°13.352 2°51.138 74.1 2.4 60 13.2
2009-01-21 09:29:59 51°13.353 2°51.142 74.5 2.3 61 13.2
2009-01-21 09:30:04 51°13.354 2°51.146 75 2.3 60 13.2
2009-01-21 09:30:09 51°13.356 2°51.15 75.6 2.3 60 13.2
2009-01-21 09:30:15 51°13.358 2°51.156 76 2.2 59 13.2
2009-01-21 09:30:19 51°13.359 2°51.159 76.5 2.2 60 13.2
2009-01-21 09:30:24 51°13.36 2°51.163 77 2.2 60 13.2
2009-01-21 09:30:29 51°13.362 2°51.167 77.5 2.1 60 13.2
2009-01-21 09:30:35 51°13.364 2°51.172 78.1 2.1 59 13.2
2009-01-21 09:30:39 51°13.365 2°51.175 78.7 2.1 59 13.1
2009-01-21 09:30:44 51°13.366 2°51.179 79.1 2.1 60 13.2
2009-01-21 09:30:49 51°13.368 2°51.183 79.6 2.1 60 13.2
2009-01-21 09:30:54 51°13.369 2°51.187 80.3 2 59 13.2
2009-01-21 09:30:59 51°13.371 2°51.191 80.9 2 60 13.2
2009-01-21 09:31:04 51°13.372 2°51.195 81.6 2 60 13.2
2009-01-21 09:31:09 51°13.373 2°51.199 82.2 2 59 13.2
2009-01-21 09:31:14 51°13.374 2°51.202 82.8 2 61 13.1
2009-01-21 09:31:19 51°13.376 2°51.206 83.5 2 60 13.2
2009-01-21 09:31:24 51°13.377 2°51.21 84.1 1.9 59 13.2
2009-01-21 09:31:29 51°13.378 2°51.213 84.8 1.9 60 13.2
2009-01-21 09:31:34 51°13.38 2°51.217 85.5 1.9 60 13.2
2009-01-21 09:31:39 51°13.381 2°51.221 86.1 1.9 60 13.2
2009-01-21 09:31:44 51°13.382 2°51.224 86.7 1.8 59 13.2
2009-01-21 09:31:49 51°13.384 2°51.227 87.4 1.8 60 13.2
2009-01-21 09:31:54 51°13.385 2°51.231 87.9 1.8 58 13.2
2009-01-21 09:31:59 51°13.386 2°51.234 88.4 1.8 59 13.1
2009-01-21 09:32:04 51°13.388 2°51.237 88.9 1.8 59 13.1
2009-01-21 09:32:09 51°13.389 2°51.241 89.5 1.7 59 13.1
2009-01-21 09:32:15 51°13.39 2°51.245 90.1 1.7 59 13.1
2009-01-21 09:32:19 51°13.392 2°51.248 90.5 1.7 59 13.2
2009-01-21 09:32:24 51°13.393 2°51.251 91 1.7 58 13.1
2009-01-21 09:32:29 51°13.394 2°51.254 91.3 1.7 59 13.2
2009-01-21 09:32:34 51°13.395 2°51.257 91.8 1.7 57 13.1
2009-01-21 09:32:39 51°13.396 2°51.26 92.3 1.7 59 13.2
2009-01-21 09:32:44 51°13.398 2°51.264 92.7 1.7 58 13.2
2009-01-21 09:32:49 51°13.399 2°51.267 93.2 1.6 60 13.2
2009-01-21 09:32:54 51°13.4 2°51.27 93.5 1.6 57 13.2
2009-01-21 09:32:59 51°13.401 2°51.273 94 1.6 58 13.1
2009-01-21 09:33:04 51°13.402 2°51.276 94.3 1.6 58 13.1
2009-01-21 09:33:09 51°13.403 2°51.279 94.7 1.6 58 13.1
2009-01-21 09:33:14 51°13.404 2°51.282 95.2 1.6 59 13.1
2009-01-21 09:33:19 51°13.406 2°51.285 95.4 1.6 58 13.1
2009-01-21 09:33:24 51°13.407 2°51.288 95.8 1.6 60 13.1
2009-01-21 09:33:29 51°13.408 2°51.291 96.1 1.6 59 13.1
2009-01-21 09:33:34 51°13.409 2°51.294 96.3 1.6 59 13.1
2009-01-21 09:33:39 51°13.411 2°51.297 96.3 1.7 59 13.2
2009-01-21 09:33:44 51°13.412 2°51.3 96.3 1.7 60 13.1
2009-01-21 09:33:49 51°13.413 2°51.304 96.4 1.7 59 13.1
2009-01-21 09:33:54 51°13.414 2°51.307 96.4 1.7 62 13.1
2009-01-21 09:33:59 51°13.415 2°51.311 96.4 1.8 64 13.1
2009-01-21 09:34:04 51°13.416 2°51.314 96.3 1.8 63 13.1
2009-01-21 09:34:09 51°13.417 2°51.318 96.3 1.8 66 13.1
2009-01-21 09:34:15 51°13.418 2°51.323 96.4 1.9 66 13.1
2009-01-21 09:34:19 51°13.419 2°51.326 96.4 2 67 13.1
2009-01-21 09:34:24 51°13.42 2°51.33 96.5 2 67 13.1
2009-01-21 09:34:29 51°13.421 2°51.334 96.6 2.1 70 13.1
2009-01-21 09:34:35 51°13.423 2°51.34 96.6 2.4 73 13.1
2009-01-21 09:34:39 51°13.423 2°51.345 96.6 2.7 76 13.1
2009-01-21 09:34:44 51°13.424 2°51.351 96.8 2.9 78 13
2009-01-21 09:34:49 51°13.425 2°51.358 97 3.2 80 13
2009-01-21 09:34:54 51°13.426 2°51.366 97.3 3.4 82 13.1
2009-01-21 09:34:59 51°13.426 2°51.373 97.6 3.7 83 13.1
2009-01-21 09:35:04 51°13.427 2°51.382 97.9 3.9 85 13
2009-01-21 09:35:09 51°13.427 2°51.39 98 4 85 13
2009-01-21 09:35:14 51°13.428 2°51.4 98.2 4.2 85 13
2009-01-21 09:35:19 51°13.428 2°51.409 98.3 4.3 85 13
2009-01-21 09:35:24 51°13.429 2°51.419 97.3 4.5 85 12.9
2009-01-21 09:35:29 51°13.43 2°51.429 95.7 4.7 84 12.9
2009-01-21 09:35:34 51°13.431 2°51.44 93.8 4.8 83 12.9
2009-01-21 09:35:39 51°13.432 2°51.45 91.7 4.9 82 12.9
2009-01-21 09:35:44 51°13.433 2°51.461 90.2 5 82 13
2009-01-21 09:35:49 51°13.434 2°51.472 89.1 5.1 81 12.9
2009-01-21 09:35:54 51°13.435 2°51.483 88.7 5.1 81 12.9
2009-01-21 09:35:59 51°13.436 2°51.495 88.4 5.2 81 12.9
2009-01-21 09:36:04 51°13.437 2°51.506 88.4 5.2 82 12.9
2009-01-21 09:36:09 51°13.438 2°51.518 88.3 5.3 81 12.9
2009-01-21 09:36:14 51°13.439 2°51.529 88.4 5.3 82 12.9
2009-01-21 09:36:19 51°13.44 2°51.54 88.8 5.2 82 12.9
2009-01-21 09:36:24 51°13.441 2°51.552 89.1 5.1 81 12.9
2009-01-21 09:36:29 51°13.442 2°51.562 89.2 4.9 81 12.9
2009-01-21 09:36:35 51°13.444 2°51.575 88.8 4.8 80 12.9
2009-01-21 09:36:39 51°13.444 2°51.583 87.9 4.7 80 12.9
2009-01-21 09:36:44 51°13.446 2°51.593 86.7 4.7 78 12.9
2009-01-21 09:36:49 51°13.447 2°51.603 85.6 4.6 77 12.8
2009-01-21 09:36:54 51°13.449 2°51.613 84.4 4.5 76 12.8
2009-01-21 09:36:59 51°13.45 2°51.623 83 4.4 75 12.8
2009-01-21 09:37:04 51°13.452 2°51.632 81.6 4.4 74 12.8
2009-01-21 09:37:09 51°13.454 2°51.641 80.4 4.3 73 12.8
2009-01-21 09:37:15 51°13.456 2°51.652 78.9 4.3 72 12.8
2009-01-21 09:37:19 51°13.458 2°51.659 77.5 4.2 70 12.8
2009-01-21 09:37:24 51°13.46 2°51.668 76 4.2 69 12.8
2009-01-21 09:37:29 51°13.462 2°51.676 74.7 4.2 68 12.8
2009-01-21 09:37:34 51°13.464 2°51.685 73.2 4.1 67 12.8
2009-01-21 09:37:39 51°13.466 2°51.693 71.6 4.1 66 12.8
2009-01-21 09:37:44 51°13.469 2°51.701 70.1 4.1 64 12.7
2009-01-21 09:37:49 51°13.471 2°51.709 68.6 4.1 64 12.7
2009-01-21 09:37:54 51°13.474 2°51.717 67 4 63 12.7
2009-01-21 09:37:59 51°13.476 2°51.725 65.8 4.1 62 12.7
2009-01-21 09:38:04 51°13.479 2°51.733 65 4 62 12.7
2009-01-21 09:38:09 51°13.482 2°51.741 64.7 4 62 12.6
2009-01-21 09:38:14 51°13.484 2°51.749 64.7 4 63 12.7
2009-01-21 09:38:19 51°13.487 2°51.756 64.9 4 62 12.7
2009-01-21 09:38:24 51°13.489 2°51.764 65.7 3.9 62 12.6
2009-01-21 09:38:29 51°13.492 2°51.772 66.5 3.9 63 12.6
2009-01-21 09:38:35 51°13.494 2°51.781 67.5 3.9 64 12.7
2009-01-21 09:38:39 51°13.496 2°51.787 68 3.9 64 12.7
2009-01-21 09:38:44 51°13.499 2°51.795 68.5 3.9 64 12.6
2009-01-21 09:38:49 51°13.501 2°51.802 69 3.9 64 12.5
2009-01-21 09:38:54 51°13.503 2°51.81 69.2 3.8 63 12.6
2009-01-21 09:38:59 51°13.506 2°51.817 69.2 3.8 63 12.6
2009-01-21 09:39:04 51°13.508 2°51.825 69.4 3.8 64 12.6
2009-01-21 09:39:09 51°13.51 2°51.832 69.4 3.8 63 12.7
2009-01-21 09:39:15 51°13.513 2°51.841 69.3 3.8 64 12.6
2009-01-21 09:39:19 51°13.515 2°51.847 69.2 3.7 63 12.6
2009-01-21 09:39:24 51°13.517 2°51.855 69 3.8 64 12.6
2009-01-21 09:39:29 51°13.519 2°51.862 68.9 3.8 63 12.6
2009-01-21 09:39:35 51°13.522 2°51.871 68.7 3.7 64 12.6
2009-01-21 09:39:39 51°13.524 2°51.877 68.7 3.7 62 12.5
2009-01-21 09:39:44 51°13.527 2°51.884 68.6 3.7 64 12.6
2009-01-21 09:39:49 51°13.529 2°51.891 68.4 3.7 62 12.6
2009-01-21 09:39:54 51°13.531 2°51.899 67.9 3.7 63 12.6
2009-01-21 09:39:59 51°13.534 2°51.906 67.5 3.7 61 12.6
2009-01-21 09:40:04 51°13.536 2°51.913 67 3.7 61 12.6
2009-01-21 09:40:09 51°13.539 2°51.92 66.6 3.7 61 12.6
2009-01-21 09:40:14 51°13.541 2°51.927 66.1 3.7 60 12.6
2009-01-21 09:40:19 51°13.544 2°51.935 65.6 3.7 60 12.6
2009-01-21 09:40:24 51°13.546 2°51.942 65.1 3.7 60 12.6
2009-01-21 09:40:29 51°13.549 2°51.949 64.7 3.7 61 12.6
2009-01-21 09:40:34 51°13.551 2°51.956 64.3 3.7 59 12.6
2009-01-21 09:40:39 51°13.554 2°51.963 64 3.7 60 12.6
2009-01-21 09:40:44 51°13.557 2°51.97 63.5 3.7 59 12.6
2009-01-21 09:40:49 51°13.559 2°51.977 63 3.6 60 12.5
2009-01-21 09:40:54 51°13.562 2°51.983 62.6 3.6 58 12.6
2009-01-21 09:40:59 51°13.565 2°51.99 62.1 3.6 58 12.6
2009-01-21 09:41:04 51°13.567 2°51.997 61.6 3.5 58 12.6
2009-01-21 09:41:09 51°13.57 2°52.003 61.2 3.5 57 12.6
2009-01-21 09:41:14 51°13.573 2°52.01 60.9 3.4 58 12.6
2009-01-21 09:41:19 51°13.575 2°52.016 60.6 3.4 56 12.5
2009-01-21 09:41:24 51°13.578 2°52.022 60.3 3.4 57 12.6
2009-01-21 09:41:29 51°13.58 2°52.028 60.3 3.3 56 12.5
2009-01-21 09:41:35 51°13.583 2°52.035 60.1 3.2 57 12.5
2009-01-21 09:41:39 51°13.585 2°52.04 59.9 3.2 56 12.5
2009-01-21 09:41:44 51°13.588 2°52.046 59.9 3.1 57 12.5
2009-01-21 09:41:49 51°13.59 2°52.051 59.8 3.1 55 12.5
2009-01-21 09:41:54 51°13.593 2°52.057 59.8 3 57 12.5
2009-01-21 09:41:59 51°13.595 2°52.062 59.9 3 55 12.5
2009-01-21 09:42:04 51°13.598 2°52.068 59.9 3 57 12.5
2009-01-21 09:42:09 51°13.6 2°52.074 60 3 56 12.5
2009-01-21 09:42:14 51°13.602 2°52.079 60.1 2.9 56 12.5
2009-01-21 09:42:19 51°13.605 2°52.084 60.2 2.9 56 12.5
2009-01-21 09:42:24 51°13.607 2°52.089 60.3 2.8 56 12.5
2009-01-21 09:42:29 51°13.609 2°52.095 60.3 2.8 56 12.5